Terminal Aerodrome Forecast
Issued by NWS Sioux Falls, SD

Home | Current Version | Previous Version | Graphics & Text | Print | Product List | Glossary Off
Versions: 1 2 3 4 5 6 7 8 9 10 11 12 13 14

703
FTUS43 KFSD 261120
TAFFSD
TAF
KFSD 261120Z 2612/2712 VRB03KT P6SM FEW200
      TEMPO 2612/2613 4SM BR
     FM261500 04008KT P6SM FEW250
     FM261700 02010G16KT P6SM SCT050
     FM270000 02006KT P6SM SKC
     FM270800 15004KT P6SM SKC=

USA.gov is the U.S. government's official web portal to all federal, state and local government web resources and services.